»·PEaware :: AJT849 KMIA-MKJP

AJT849 :: KMIA-MKJP

FLIGHT INFORMATION

Flight Status: Arrived
Operator: Unknown
More flights by this operator :: More flights under this callsign
Pilot: Evan B. (28140)
Aircraft: BOEING 727-200
(B722)
More flights by this aircraft type
Origin: KMIA Miami Intl
United States
Destination: MKJP Norman Manley Intl
Jamaica
More flights between these airports :: More routes between these airports
Route: EONNS2 EONNS A509 URSUS UCA EMABU KEYNO MLY
File this flight plan on PilotEdge
Remarks:
Altitude:
(Current/Filed)
35,000ft
Speed:
(Current/Filed)
450kts
Departed: 01-Apr-20 01:30 AM
Arrived: 01-Apr-20 03:05 AM
Distance/Time
Traveled:
510nm/1:35
Distance/Time
To Go:
Arrived

Flight Plot

Page will automatically refresh every two minutes.


Map Options




Map Legend


Flown Route
Filed Route
Departure Airport
Arrival Airport
Navaid (VOR, NDB)
Fix

Horizontal Profiles

Position Reports

Time Latitude Longitude Heading Altitude Ground
Speed
01-Apr-20 01:24 25.804787 -80.299439 85 18ft 0kts
01-Apr-20 01:25 25.804139 -80.296304 92 18ft 17kts
01-Apr-20 01:26 25.804493 -80.290264 89 18ft 32kts
01-Apr-20 01:27 25.804836 -80.280636 82 18ft 29kts
01-Apr-20 01:28 25.802990 -80.273719 82 18ft 25kts
01-Apr-20 01:29 25.801978 -80.271243 266 18ft 31kts
01-Apr-20 01:30 25.803304 -80.311355 267 1904ft 157kts
01-Apr-20 01:31 25.806404 -80.349904 273 3139ft 181kts
01-Apr-20 01:32 25.794906 -80.423904 233 3458ft 307kts
01-Apr-20 01:33 25.734518 -80.497828 229 4548ft 318kts
01-Apr-20 01:34 25.672245 -80.510445 135 8264ft 240kts
01-Apr-20 01:35 25.628577 -80.460371 165 11393ft 230kts
01-Apr-20 01:36 25.560661 -80.448498 172 13658ft 274kts
01-Apr-20 01:37 25.510435 -80.376848 116 16191ft 328kts
01-Apr-20 01:38 25.471540 -80.281086 117 18724ft 353kts
01-Apr-20 01:39 25.431066 -80.180189 117 21228ft 366kts
01-Apr-20 01:40 25.389989 -80.077082 116 23718ft 366kts
01-Apr-20 01:41 25.328746 -80.000047 157 26041ft 325kts
01-Apr-20 01:41 25.262834 -79.959588 160 27287ft 327kts
01-Apr-20 01:43 25.171313 -79.900674 156 28832ft 334kts
01-Apr-20 01:43 25.103114 -79.851677 153 29053ft 369kts
01-Apr-20 01:44 25.017651 -79.789113 152 30482ft 369kts
01-Apr-20 01:46 24.913530 -79.714461 151 30876ft 400kts
01-Apr-20 01:46 24.835509 -79.657935 150 30864ft 407kts
01-Apr-20 01:48 24.722277 -79.577250 151 30869ft 431kts
01-Apr-20 01:48 24.635906 -79.516520 150 30869ft 455kts
01-Apr-20 01:49 24.541941 -79.449820 147 31319ft 447kts
01-Apr-20 01:50 24.468221 -79.396404 153 30662ft 405kts
01-Apr-20 01:51 24.373645 -79.320497 145 24168ft 492kts
01-Apr-20 01:52 24.259614 -79.228459 144 18369ft 524kts
01-Apr-20 01:53 24.134905 -79.154858 155 13464ft 505kts
01-Apr-20 01:54 24.016052 -79.089075 155 11736ft 455kts
01-Apr-20 01:55 23.917429 -79.061398 178 12492ft 367kts
01-Apr-20 01:56 23.814368 -79.065430 180 8246ft 411kts
01-Apr-20 01:57 23.706963 -79.067162 179 9055ft 383kts
01-Apr-20 01:58 23.598857 -79.017081 170 11888ft 448kts
01-Apr-20 01:59 23.477210 -79.000838 177 16908ft 431kts
01-Apr-20 02:00 23.362354 -78.987811 177 21916ft 392kts
01-Apr-20 02:01 23.264318 -78.974607 178 26779ft 317kts
01-Apr-20 02:02 23.192484 -78.964479 181 29278ft 257kts
01-Apr-20 02:03 23.103835 -78.966008 192 26839ft 350kts
01-Apr-20 02:04 23.003527 -78.982419 196 24894ft 449kts
01-Apr-20 02:05 22.923504 -78.946207 155 3259ft 367kts
01-Apr-20 02:06 22.825567 -78.912414 172 7294ft 394kts
01-Apr-20 02:07 22.710497 -78.902065 177 11892ft 429kts
01-Apr-20 02:08 22.590513 -78.890507 174 16598ft 432kts
01-Apr-20 02:09 22.473182 -78.874524 174 20932ft 417kts
01-Apr-20 02:10 22.362050 -78.859792 174 24624ft 399kts
01-Apr-20 02:11 22.253385 -78.847583 179 26900ft 404kts
01-Apr-20 02:12 22.132547 -78.841414 178 26895ft 465kts
01-Apr-20 02:13 21.996380 -78.835138 178 26893ft 515kts
01-Apr-20 02:14 21.848956 -78.828847 178 26884ft 531kts
01-Apr-20 02:15 21.705147 -78.822595 178 26881ft 507kts
01-Apr-20 02:16 21.567552 -78.816384 178 26882ft 488kts
01-Apr-20 02:17 21.433773 -78.810175 178 26883ft 476kts
01-Apr-20 02:18 21.302810 -78.796339 153 22674ft 544kts
01-Apr-20 02:19 21.220608 -78.657091 115 6368ft 601kts
01-Apr-20 02:20 21.152432 -78.514870 128 4429ft 473kts
01-Apr-20 02:21 21.077118 -78.422194 114 7075ft 418kts
01-Apr-20 02:22 21.028581 -78.302211 124 10443ft 458kts
01-Apr-20 02:23 20.922746 -78.227187 156 14146ft 453kts
01-Apr-20 02:24 20.812292 -78.171273 154 17441ft 435kts
01-Apr-20 02:25 20.705461 -78.114243 153 20336ft 418kts
01-Apr-20 02:26 20.603489 -78.059643 153 22778ft 404kts
01-Apr-20 02:27 20.504434 -78.007096 153 24807ft 395kts
01-Apr-20 02:28 20.401080 -77.952420 153 24847ft 435kts
01-Apr-20 02:29 20.288142 -77.892723 153 24842ft 470kts
01-Apr-20 02:30 20.167713 -77.829238 153 24835ft 498kts
01-Apr-20 02:31 20.041095 -77.762623 153 24822ft 520kts
01-Apr-20 02:32 19.908445 -77.692975 153 24819ft 543kts
01-Apr-20 02:33 19.771788 -77.621334 153 24813ft 549kts
01-Apr-20 02:34 19.640364 -77.552500 153 24800ft 509kts
01-Apr-20 02:35 19.513885 -77.486455 154 21823ft 514kts
01-Apr-20 02:36 19.378683 -77.437751 166 18439ft 520kts
01-Apr-20 02:37 19.240172 -77.400061 165 15041ft 501kts
01-Apr-20 02:38 19.110907 -77.361576 165 12958ft 478kts
01-Apr-20 02:39 18.985519 -77.324025 165 12904ft 450kts
01-Apr-20 02:40 18.868789 -77.289726 165 12909ft 418kts
01-Apr-20 02:41 18.759355 -77.256980 164 12910ft 395kts
01-Apr-20 02:42 18.652153 -77.225033 165 12969ft 423kts
01-Apr-20 02:43 18.532356 -77.189725 165 12982ft 468kts
01-Apr-20 02:44 18.405768 -77.152286 165 12977ft 460kts
01-Apr-20 02:45 18.288192 -77.117642 165 12983ft 408kts
01-Apr-20 02:46 18.184785 -77.087275 165 12989ft 366kts
01-Apr-20 02:47 18.093817 -77.060537 165 12985ft 315kts
01-Apr-20 02:48 18.031708 -77.009393 115 12110ft 302kts
01-Apr-20 02:49 17.995038 -76.924612 115 9912ft 334kts
01-Apr-20 02:50 17.959515 -76.844077 115 8886ft 272kts
01-Apr-20 02:51 17.929127 -76.777613 126 8883ft 232kts
01-Apr-20 02:52 17.883177 -76.722713 135 6303ft 260kts
01-Apr-20 02:53 17.830505 -76.665231 132 4058ft 273kts
01-Apr-20 02:54 17.791075 -76.607629 81 3975ft 215kts
01-Apr-20 02:55 17.829886 -76.571086 357 3995ft 218kts
01-Apr-20 02:56 17.869961 -76.618990 294 2468ft 211kts
01-Apr-20 02:57 17.886007 -76.660009 293 1902ft 121kts
01-Apr-20 02:58 17.898925 -76.692645 293 1464ft 136kts
01-Apr-20 02:59 17.914575 -76.732619 292 842ft 138kts
01-Apr-20 03:00 17.928820 -76.769670 292 211ft 135kts
01-Apr-20 03:01 17.930726 -76.774638 293 127ft 129kts
01-Apr-20 03:02 17.909875 -76.720686 293 1023ft 145kts
01-Apr-20 03:03 17.933134 -76.781054 292 22ft 121kts
01-Apr-20 03:04 17.935771 -76.786420 327 21ft 0kts
01-Apr-20 03:05 17.935771 -76.786420 327 21ft 0kts

Navigation Log

Ident Type
Flight plan parsing failed, navigation log unavailable